Time;durP1;ratioP1;P1;durP2;ratioP2;P2;SDS_P1;SDS_P2;PMS_P1;PMS_P2;Temp;Humidity;BMP_temperature;BMP_pressure;BME280_temperature;BME280_humidity;BME280_pressure;Samples;Min_cycle;Max_cycle;Signal;HPM_P1;HPM_P2
2021/01/22 00:00:55;;;;;;;10.48;8.63;;;;;;;3.93;98.70;98468.13;4925296;29;20562;-74
2021/01/22 00:03:20;;;;;;;9.20;6.82;;;;;;;3.87;98.99;98456.38;4926619;28;20126;-74
2021/01/22 00:05:47;;;;;;;8.45;6.93;;;;;;;3.87;99.17;98461.66;4931574;29;20496;-83
2021/01/22 00:08:13;;;;;;;10.88;7.07;;;;;;;3.85;99.53;98453.13;4927555;29;20035;-74
2021/01/22 00:10:38;;;;;;;9.18;6.55;;;;;;;3.86;98.82;98457.41;4923396;29;20237;-84
2021/01/22 00:13:04;;;;;;;10.80;6.40;;;;;;;3.83;98.71;98452.47;4924250;29;20106;-84
2021/01/22 00:15:30;;;;;;;11.20;6.18;;;;;;;3.84;99.00;98462.03;4924470;29;20498;-85
2021/01/22 00:17:56;;;;;;;10.15;5.20;;;;;;;3.86;98.61;98462.69;4919701;29;20059;-73
2021/01/22 00:20:22;;;;;;;10.18;4.80;;;;;;;3.88;98.56;98473.06;4927220;29;20034;-83
2021/01/22 00:22:48;;;;;;;9.45;5.05;;;;;;;3.82;99.04;98488.56;4923595;29;20067;-74
2021/01/22 00:25:13;;;;;;;5.65;4.53;;;;;;;3.80;99.06;98490.53;4925596;29;20103;-74
2021/01/22 00:27:39;;;;;;;7.72;4.07;;;;;;;3.77;98.91;98482.97;4924469;29;20571;-73
2021/01/22 00:30:05;;;;;;;6.05;3.97;;;;;;;3.76;100.00;98481.34;4939554;28;20119;-73
2021/01/22 00:32:30;;;;;;;4.70;3.15;;;;;;;3.73;99.61;98488.75;4927409;29;20063;-73
2021/01/22 00:34:56;;;;;;;12.27;3.65;;;;;;;3.70;99.45;98491.72;4926437;28;20119;-73
2021/01/22 00:37:21;;;;;;;5.70;2.92;;;;;;;3.57;99.70;98479.03;4924563;29;22150;-84
2021/01/22 00:39:47;;;;;;;8.35;2.78;;;;;;;3.72;99.70;98510.84;4924156;29;20126;-74
2021/01/22 00:42:12;;;;;;;5.00;2.30;;;;;;;3.71;99.67;98511.84;4920933;29;20551;-73
2021/01/22 00:44:39;;;;;;;3.33;2.00;;;;;;;3.68;99.47;98507.69;4924546;29;20071;-73
2021/01/22 00:47:05;;;;;;;2.97;2.30;;;;;;;3.70;99.75;98513.63;4906074;29;20047;-73
2021/01/22 00:49:30;;;;;;;7.93;3.28;;;;;;;3.71;100.00;98519.75;4927348;29;20550;-83
2021/01/22 00:51:56;;;;;;;7.60;3.90;;;;;;;3.70;99.86;98518.09;4929605;29;20127;-74
2021/01/22 00:54:21;;;;;;;6.93;4.85;;;;;;;3.72;99.88;98531.97;4928470;29;20115;-73
2021/01/22 00:56:47;;;;;;;8.70;5.30;;;;;;;3.74;99.62;98529.94;4928320;29;20115;-74
2021/01/22 00:59:12;;;;;;;8.48;6.60;;;;;;;3.71;100.00;98530.31;4925771;29;20119;-74
2021/01/22 01:01:38;;;;;;;9.23;6.72;;;;;;;3.63;99.98;98512.66;4925894;29;20111;-74
2021/01/22 01:04:03;;;;;;;10.73;7.57;;;;;;;3.74;100.00;98543.97;4929845;29;20203;-74
2021/01/22 01:06:29;;;;;;;12.80;9.00;;;;;;;3.70;99.55;98541.84;4926015;29;20078;-84
2021/01/22 01:08:54;;;;;;;11.45;9.75;;;;;;;3.69;99.99;98541.00;4925374;29;20459;-74
2021/01/22 01:11:20;;;;;;;15.13;9.07;;;;;;;3.67;99.65;98545.63;4928084;29;20078;-83
2021/01/22 01:13:45;;;;;;;12.80;8.35;;;;;;;3.66;100.00;98550.09;4928058;29;20102;-84
2021/01/22 01:16:11;;;;;;;15.60;8.98;;;;;;;3.66;99.47;98554.56;4926814;29;20123;-74
2021/01/22 01:18:36;;;;;;;15.18;9.10;;;;;;;3.68;100.00;98555.19;4926040;29;20119;-74
2021/01/22 01:21:02;;;;;;;14.05;8.77;;;;;;;3.71;100.00;98551.41;4928968;29;20127;-74
2021/01/22 01:23:28;;;;;;;14.63;8.43;;;;;;;3.72;100.00;98560.97;4925749;29;20071;-74
2021/01/22 01:25:53;;;;;;;16.20;7.45;;;;;;;3.71;100.00;98564.59;4931195;29;20135;-74
2021/01/22 01:28:18;;;;;;;13.63;7.50;;;;;;;3.72;100.00;98560.97;4926366;29;20114;-74
2021/01/22 01:30:44;;;;;;;11.95;6.60;;;;;;;3.71;100.00;98564.59;4927154;29;20139;-74
2021/01/22 01:33:10;;;;;;;11.73;6.65;;;;;;;3.57;100.00;98545.81;4925399;29;20130;-84
2021/01/22 01:35:36;;;;;;;11.73;7.50;;;;;;;3.73;100.00;98575.81;4909310;29;20126;-74
2021/01/22 01:38:01;;;;;;;11.52;7.80;;;;;;;3.56;100.00;98552.06;4925309;29;20146;-74
2021/01/22 01:40:27;;;;;;;13.50;8.48;;;;;;;3.74;100.00;98585.34;4940041;28;20127;-74
2021/01/22 01:42:52;;;;;;;12.90;10.73;;;;;;;3.72;100.00;98593.44;4924755;29;20122;-74
2021/01/22 01:45:18;;;;;;;19.40;12.00;;;;;;;3.71;99.81;98601.53;4929058;29;20178;-74
2021/01/22 01:47:43;;;;;;;18.80;14.30;;;;;;;3.71;100.00;98610.25;4922847;29;20147;-74
2021/01/22 01:50:10;;;;;;;20.15;14.85;;;;;;;3.73;99.95;98618.84;4927883;28;20035;-74
2021/01/22 01:52:35;;;;;;;24.70;16.10;;;;;;;3.75;99.68;98634.50;4924984;29;20047;-74
2021/01/22 01:55:01;;;;;;;18.75;14.65;;;;;;;3.10;99.81;98530.56;4911989;29;20122;-74
2021/01/22 01:57:26;;;;;;;19.17;14.52;;;;;;;3.75;99.64;98630.06;4913173;29;20209;-73
2021/01/22 01:59:52;;;;;;;15.57;11.65;;;;;;;3.64;99.65;98610.09;4925630;29;20050;-74
2021/01/22 02:02:18;;;;;;;11.57;8.43;;;;;;;3.75;99.87;98618.66;4906753;29;20150;-74
2021/01/22 02:04:44;;;;;;;11.60;6.40;;;;;;;3.78;99.98;98620.97;4928187;29;20091;-83
2021/01/22 02:07:09;;;;;;;8.35;4.55;;;;;;;3.78;99.15;98629.72;4927178;29;20123;-74
2021/01/22 02:09:35;;;;;;;4.78;3.17;;;;;;;3.77;99.31;98629.88;4924562;29;20468;-82
2021/01/22 02:12:00;;;;;;;5.10;2.38;;;;;;;3.76;98.75;98633.50;4942730;28;20134;-73
2021/01/22 02:14:26;;;;;;;5.20;2.03;;;;;;;3.75;98.94;98637.13;4939917;28;20130;-74
2021/01/22 02:16:52;;;;;;;5.10;1.23;;;;;;;3.73;99.16;98649.69;4925501;29;20067;-74
2021/01/22 02:19:18;;;;;;;4.10;1.70;;;;;;;3.76;98.83;98663.38;4909906;29;20534;-74
2021/01/22 02:21:44;;;;;;;7.47;1.50;;;;;;;3.80;98.82;98659.41;4925796;29;20062;-75
2021/01/22 02:24:19;;;;;;;6.18;2.00;;;;;;;3.72;98.57;98640.13;4924886;29;20465;-82
2021/01/22 02:26:52;;;;;;;7.07;2.25;;;;;;;3.85;98.66;98658.09;4925237;29;20047;-74
2021/01/22 02:29:18;;;;;;;5.63;2.00;;;;;;;3.59;98.43;98628.22;4938710;28;20030;-74
2021/01/22 02:31:44;;;;;;;7.82;2.80;;;;;;;3.89;98.76;98667.34;4910210;29;20126;-74
2021/01/22 02:34:10;;;;;;;6.80;2.92;;;;;;;3.89;99.43;98668.16;4904568;29;20490;-74
2021/01/22 02:36:39;;;;;;;9.38;2.60;;;;;;;3.92;98.85;98667.03;4925928;29;20062;-74
2021/01/22 02:39:05;;;;;;;6.15;2.20;;;;;;;3.90;99.21;98676.91;4922483;29;20062;-73
2021/01/22 02:41:31;;;;;;;7.20;2.55;;;;;;;3.84;98.15;98675.75;4939973;28;20036;-74
2021/01/22 02:43:56;;;;;;;7.35;2.72;;;;;;;3.78;98.33;98685.13;4903851;29;20047;-74
2021/01/22 02:46:22;;;;;;;7.63;2.58;;;;;;;3.67;97.80;98672.22;4921412;29;20507;-73
2021/01/22 02:48:47;;;;;;;7.47;2.40;;;;;;;3.49;97.97;98646.84;4898234;29;20122;-74
2021/01/22 02:51:13;;;;;;;16.80;2.90;;;;;;;3.66;97.87;98678.53;4892139;29;20119;-74
2021/01/22 02:53:39;;;;;;;5.97;1.92;;;;;;;3.45;98.25;98669.22;4926626;29;20039;-74
2021/01/22 02:56:17;;;;;;;5.40;1.55;;;;;;;3.46;98.59;98684.06;4920780;29;20115;-74
2021/01/22 02:58:49;;;;;;;3.17;1.40;;;;;;;3.40;98.94;98681.25;4922420;29;20111;-74
2021/01/22 03:01:16;;;;;;;4.05;1.30;;;;;;;3.38;98.78;98689.31;4909477;29;20433;-74
2021/01/22 03:03:52;;;;;;;4.90;1.50;;;;;;;3.34;98.90;98701.16;4928293;29;20036;-74
2021/01/22 03:06:22;;;;;;;4.03;1.42;;;;;;;3.27;99.10;98702.78;4941420;28;20040;-74
2021/01/22 03:08:48;;;;;;;6.35;1.88;;;;;;;3.21;99.67;98704.22;4925652;29;20023;-73
2021/01/22 03:11:13;;;;;;;5.93;1.45;;;;;;;2.97;99.48;98676.78;4907943;29;20078;-74
2021/01/22 03:13:39;;;;;;;7.70;1.83;;;;;;;2.87;100.00;98665.53;4907358;29;20241;-74
2021/01/22 03:16:04;;;;;;;3.78;1.13;;;;;;;3.11;100.00;98708.81;4905862;29;20031;-74
2021/01/22 03:18:30;;;;;;;6.68;1.23;;;;;;;3.10;99.57;98713.25;4906785;29;20062;-74
2021/01/22 03:20:55;;;;;;;2.33;1.00;;;;;;;3.09;99.80;98716.03;4923568;29;20119;-74
2021/01/22 03:23:21;;;;;;;3.30;1.20;;;;;;;3.06;99.23;98711.91;4924160;29;20118;-73
2021/01/22 03:25:47;;;;;;;7.88;1.27;;;;;;;3.07;99.26;98724.13;4923924;29;20127;-73
2021/01/22 03:28:14;;;;;;;4.80;1.20;;;;;;;3.04;99.27;98721.78;4924964;29;20050;-82
2021/01/22 03:30:39;;;;;;;2.63;1.08;;;;;;;3.03;99.40;98735.94;4925924;29;20028;-73
2021/01/22 03:33:05;;;;;;;8.23;1.50;;;;;;;3.00;99.88;98737.09;4927715;29;20123;-73
2021/01/22 03:35:30;;;;;;;6.57;1.20;;;;;;;2.83;99.42;98716.88;4936854;29;20034;-73
2021/01/22 03:37:56;;;;;;;8.40;1.00;;;;;;;2.97;99.21;98740.03;4918455;29;20101;-73
2021/01/22 03:40:22;;;;;;;5.45;1.02;;;;;;;2.97;99.62;98749.75;4908342;29;20051;-73
2021/01/22 03:42:48;;;;;;;4.70;0.98;;;;;;;2.88;99.52;98739.16;4939174;28;20044;-73
2021/01/22 03:45:13;;;;;;;6.50;1.48;;;;;;;2.82;99.29;98736.31;4903769;29;20110;-74
2021/01/22 03:47:39;;;;;;;9.77;1.35;;;;;;;2.91;99.51;98767.81;4923416;29;20034;-73
2021/01/22 03:50:05;;;;;;;4.78;0.90;;;;;;;2.90;99.89;98766.16;4908682;29;20170;-73
2021/01/22 03:52:30;;;;;;;7.53;1.42;;;;;;;2.89;100.00;98768.97;4923565;29;20079;-72
2021/01/22 03:54:56;;;;;;;12.65;1.60;;;;;;;2.84;99.94;98774.72;4929269;29;20482;-73
2021/01/22 03:57:24;;;;;;;8.00;1.38;;;;;;;2.83;100.00;98775.69;4936771;28;20112;-81
2021/01/22 03:59:50;;;;;;;4.97;1.20;;;;;;;2.84;100.00;98787.03;4923342;29;20027;-81
2021/01/22 04:02:17;;;;;;;8.95;1.20;;;;;;;2.77;99.69;98780.75;4924954;29;20600;-73
2021/01/22 04:04:45;;;;;;;11.15;1.52;;;;;;;2.82;99.85;98789.00;4919742;29;20035;-73
2021/01/22 04:07:12;;;;;;;9.10;1.95;;;;;;;2.78;100.00;98806.91;4923750;29;20126;-73
2021/01/22 04:09:37;;;;;;;7.35;1.80;;;;;;;2.78;100.00;98809.56;4926518;29;20151;-73
2021/01/22 04:12:03;;;;;;;7.10;1.70;;;;;;;2.74;99.95;98809.03;4919385;29;20530;-73
2021/01/22 04:14:28;;;;;;;14.98;1.63;;;;;;;2.54;100.00;98774.16;4925777;29;20539;-73
2021/01/22 04:16:55;;;;;;;8.82;1.50;;;;;;;2.48;100.00;98760.75;4927723;29;20127;-72
2021/01/22 04:19:21;;;;;;;9.23;1.70;;;;;;;2.77;100.00;98813.16;4924133;29;20448;-72
2021/01/22 04:21:46;;;;;;;11.52;2.10;;;;;;;2.59;100.00;98790.28;4926560;29;20036;-73
2021/01/22 04:24:12;;;;;;;6.90;1.50;;;;;;;2.74;100.00;98813.47;4922472;29;20035;-82
2021/01/22 04:26:37;;;;;;;7.20;1.48;;;;;;;2.75;100.00;98815.13;4941220;28;20110;-81
2021/01/22 04:29:03;;;;;;;8.50;1.92;;;;;;;2.74;100.00;98818.72;4928671;28;20725;-83
2021/01/22 04:31:28;;;;;;;10.15;2.35;;;;;;;2.65;100.00;98802.03;4927344;29;20146;-73
2021/01/22 04:33:54;;;;;;;9.40;2.08;;;;;;;2.72;100.00;98818.91;4924720;29;20464;-74
2021/01/22 04:36:19;;;;;;;9.93;1.67;;;;;;;2.55;100.00;98796.88;4929004;29;20040;-73
2021/01/22 04:38:45;;;;;;;10.23;1.83;;;;;;;2.41;100.00;98776.34;4939908;28;20144;-73
2021/01/22 04:41:11;;;;;;;8.35;1.73;;;;;;;2.70;100.00;98822.66;4911449;29;20134;-73
2021/01/22 04:43:44;;;;;;;15.43;2.60;;;;;;;2.70;100.00;98825.31;4925403;29;20028;-73
2021/01/22 04:46:09;;;;;;;7.35;1.85;;;;;;;2.45;100.00;98790.84;4927751;29;20032;-73
2021/01/22 04:48:35;;;;;;;10.27;2.17;;;;;;;2.54;100.00;98810.16;4908372;29;20039;-73
2021/01/22 04:51:00;;;;;;;11.85;2.50;;;;;;;2.66;100.00;98845.00;4908676;29;20062;-73
2021/01/22 04:53:26;;;;;;;10.38;2.40;;;;;;;2.56;100.00;98821.38;4914957;29;20486;-73
2021/01/22 04:55:52;;;;;;;25.55;3.15;;;;;;;2.65;100.00;98840.72;4913174;29;20516;-73
2021/01/22 04:58:17;;;;;;;16.60;2.92;;;;;;;2.64;100.00;98846.97;4935959;29;20570;-73
2021/01/22 05:00:43;;;;;;;13.95;2.80;;;;;;;2.51;100.00;98837.63;4911207;29;20118;-81
2021/01/22 05:03:09;;;;;;;10.88;3.30;;;;;;;2.59;100.00;98845.59;4914803;29;20401;-73
2021/01/22 05:05:34;;;;;;;11.90;2.70;;;;;;;2.60;100.00;98843.81;4935100;28;20170;-73
2021/01/22 05:08:04;;;;;;;13.77;3.30;;;;;;;2.44;100.00;98818.16;4922709;29;20035;-73
2021/01/22 05:10:29;;;;;;;17.95;3.53;;;;;;;2.62;100.00;98846.28;4913168;29;20090;-74
2021/01/22 05:12:55;;;;;;;14.57;3.13;;;;;;;2.65;100.00;98851.25;4929066;29;20040;-73
2021/01/22 05:15:24;;;;;;;13.77;3.75;;;;;;;2.65;100.00;98856.53;4927932;29;20063;-73
2021/01/22 05:18:05;;;;;;;14.80;3.80;;;;;;;2.63;100.00;98855.84;4932473;29;20054;-73
2021/01/22 05:20:43;;;;;;;15.40;4.05;;;;;;;2.56;100.00;98864.34;4927510;29;20655;-73
2021/01/22 05:23:09;;;;;;;15.10;4.00;;;;;;;2.53;100.00;98862.03;4944852;28;20044;-81
2021/01/22 05:26:00;;;;;;;14.35;3.83;;;;;;;2.47;100.00;98861.78;4921972;29;20024;-74
2021/01/22 05:28:45;;;;;;;11.30;3.45;;;;;;;2.43;100.00;98866.53;4929242;29;20024;-73
2021/01/22 05:31:13;;;;;;;24.35;4.47;;;;;;;2.38;100.00;98852.97;4929814;29;20039;-73
2021/01/22 05:33:39;;;;;;;19.83;4.82;;;;;;;2.11;100.00;98823.91;4928037;29;20036;-74
2021/01/22 05:36:43;;;;;;;21.13;4.57;;;;;;;2.32;100.00;98866.72;4925915;29;20498;-73
2021/01/22 05:39:18;;;;;;;13.77;5.85;;;;;;;2.31;100.00;98871.16;4958231;28;20845;-75
2021/01/22 05:41:53;;;;;;;22.65;6.18;;;;;;;2.18;100.00;98844.38;4962432;28;20088;-74
2021/01/22 05:44:23;;;;;;;19.67;6.47;;;;;;;2.36;100.00;98887.38;4932017;28;20511;-73
2021/01/22 05:47:10;;;;;;;19.90;7.90;;;;;;;2.36;100.00;98879.47;4924383;28;20110;-73
2021/01/22 05:50:05;;;;;;;16.45;7.93;;;;;;;2.38;100.00;98880.13;4925130;29;20020;-73
2021/01/22 05:52:30;;;;;;;24.13;9.85;;;;;;;1.94;100.00;98824.72;4924739;29;20080;-74
2021/01/22 05:54:56;;;;;;;25.30;10.93;;;;;;;2.31;100.00;98891.41;4925051;29;20024;-73
2021/01/22 05:57:23;;;;;;;23.95;11.00;;;;;;;2.27;100.00;98898.75;4928825;29;20535;-80
2021/01/22 06:00:11;;;;;;;30.73;12.07;;;;;;;2.20;100.00;98897.69;4906807;29;20075;-73
2021/01/22 06:02:37;;;;;;;;;;;;;;;2.16;100.00;98896.31;4939754;28;20043;-73
2021/01/22 06:05:15;;;;;;;25.55;12.82;;;;;;;2.12;100.00;98896.63;4927198;29;20389;-74
2021/01/22 06:07:42;;;;;;;36.95;15.52;;;;;;;2.08;100.00;98907.59;4925978;29;20406;-73
2021/01/22 06:10:26;;;;;;;26.67;13.90;;;;;;;1.68;100.00;98847.25;4922837;29;20046;-80
2021/01/22 06:12:53;;;;;;;34.85;15.60;;;;;;;2.01;100.00;98907.34;4924810;29;20447;-80
2021/01/22 06:15:23;;;;;;;28.58;16.55;;;;;;;1.82;100.00;98880.16;4926457;29;20059;-73
2021/01/22 06:17:52;;;;;;;35.17;17.13;;;;;;;2.01;100.00;98912.59;4938966;28;20054;-73
2021/01/22 06:20:19;;;;;;;29.10;16.98;;;;;;;1.95;100.00;98905.31;4927376;29;20031;-73
2021/01/22 06:23:05;;;;;;;32.37;18.40;;;;;;;1.95;100.00;98915.81;4908498;29;20099;-74
2021/01/22 06:25:31;;;;;;;33.08;18.58;;;;;;;1.70;100.00;98885.75;4936041;28;20031;-73
2021/01/22 06:27:58;;;;;;;34.45;18.63;;;;;;;1.72;100.00;98903.03;4922130;29;20071;-73
2021/01/22 06:30:24;;;;;;;39.42;19.60;;;;;;;1.77;100.00;98902.59;4937473;28;20084;-73
2021/01/22 06:32:50;;;;;;;36.42;18.65;;;;;;;1.83;100.00;98923.88;4904720;29;20039;-81
2021/01/22 06:35:15;;;;;;;38.58;20.80;;;;;;;1.81;100.00;98917.97;4908358;29;20086;-73
2021/01/22 06:37:41;;;;;;;44.35;23.00;;;;;;;1.71;100.00;98914.50;4908521;29;20060;-73
2021/01/22 06:40:07;;;;;;;42.38;21.60;;;;;;;1.86;100.00;98935.09;4909495;29;20046;-73
2021/01/22 06:42:35;;;;;;;45.83;24.27;;;;;;;1.83;100.00;98942.28;4927416;29;20194;-73
2021/01/22 06:45:01;;;;;;;;;;;;;;;1.77;100.00;98940.25;4923685;29;20039;-73
2021/01/22 06:47:26;;;;;;;55.38;24.90;;;;;;;1.64;100.00;98921.31;4939455;28;20436;-73
2021/01/22 06:49:52;;;;;;;52.63;27.85;;;;;;;1.59;100.00;98921.75;4924878;29;20048;-73
2021/01/22 06:52:18;;;;;;;49.72;26.25;;;;;;;1.65;100.00;98944.84;4910004;29;20023;-73
2021/01/22 06:55:05;;;;;;;56.92;28.77;;;;;;;1.80;100.00;98953.13;4926952;29;20505;-73
2021/01/22 06:57:30;;;;;;;52.67;29.35;;;;;;;1.79;100.00;98961.97;4937562;28;20055;-73
2021/01/22 06:59:57;;;;;;;52.17;28.70;;;;;;;1.63;100.00;98946.78;4924579;29;20036;-73
2021/01/22 07:02:32;;;;;;;50.50;26.67;;;;;;;1.77;100.00;98963.91;4911367;29;20032;-80
2021/01/22 07:04:58;;;;;;;54.67;29.50;;;;;;;1.59;100.00;98952.47;4927135;29;20513;-72
2021/01/22 07:07:48;;;;;;;48.20;28.17;;;;;;;1.76;100.00;98987.75;4920251;29;20064;-74
2021/01/22 07:10:14;;;;;;;57.42;27.13;;;;;;;1.78;100.00;98984.00;4940010;28;20067;-74
2021/01/22 07:12:42;;;;;;;57.28;27.58;;;;;;;1.21;100.00;98907.72;4921796;29;20044;-80
2021/01/22 07:15:21;;;;;;;54.88;28.38;;;;;;;1.79;100.00;98993.53;4939532;28;20032;-80
2021/01/22 07:17:49;;;;;;;;;;;;;;;1.81;100.00;98998.66;4930419;29;20060;-74
2021/01/22 07:20:15;;;;;;;55.15;24.95;;;;;;;1.80;100.00;98997.00;4933693;28;20001;-74
2021/01/22 07:22:53;;;;;;;49.67;26.10;;;;;;;1.73;100.00;98994.09;4935732;29;20034;-74
2021/01/22 07:25:35;;;;;;;49.10;25.95;;;;;;;1.82;100.00;99006.41;4932157;29;20087;-74
2021/01/22 07:28:22;;;;;;;56.38;26.70;;;;;;;1.82;100.00;99011.69;4942104;28;20043;-73
2021/01/22 07:30:48;;;;;;;55.67;28.20;;;;;;;1.84;100.00;99014.16;4928423;29;20383;-74
2021/01/22 07:33:36;;;;;;;48.03;25.52;;;;;;;1.87;100.00;99015.66;4930558;29;20032;-74
2021/01/22 07:36:11;;;;;;;54.28;25.05;;;;;;;1.85;100.00;99021.06;4939991;29;20063;-80
2021/01/22 07:38:38;;;;;;;62.13;26.77;;;;;;;1.86;100.00;99035.03;4922618;29;20063;-79
2021/01/22 07:41:04;;;;;;;47.00;25.17;;;;;;;1.84;100.00;99014.97;4916175;29;20039;-73
2021/01/22 07:43:29;;;;;;;43.45;24.30;;;;;;;1.96;100.00;99038.50;4928014;29;20545;-74
2021/01/22 07:46:04;;;;;;;47.97;25.95;;;;;;;1.96;100.00;99039.31;4930574;29;20095;-74
2021/01/22 07:48:30;;;;;;;41.00;22.45;;;;;;;1.94;100.00;99036.00;4930148;29;20039;-74
2021/01/22 07:50:56;;;;;;;45.22;24.00;;;;;;;1.93;100.00;99038.78;4917925;28;20032;-74
2021/01/22 07:53:21;;;;;;;41.17;23.63;;;;;;;1.52;100.00;98978.50;4934687;29;20047;-74
2021/01/22 07:55:53;;;;;;;50.30;23.65;;;;;;;1.94;100.00;99043.91;4908694;29;20035;-75
2021/01/22 07:58:19;;;;;;;47.58;22.08;;;;;;;1.94;100.00;99046.53;4925459;29;20148;-74
2021/01/22 08:00:45;;;;;;;42.53;22.10;;;;;;;1.82;100.00;99027.47;4922265;29;20096;-76
2021/01/22 08:03:13;;;;;;;48.75;22.08;;;;;;;1.90;100.00;99039.88;4911435;29;20039;-75
2021/01/22 08:05:39;;;;;;;38.85;20.48;;;;;;;1.82;100.00;99039.75;4924807;28;20277;-75
2021/01/22 08:08:20;;;;;;;32.33;18.10;;;;;;;1.92;100.00;99045.03;4927508;29;20118;-74
2021/01/22 08:10:45;;;;;;;39.65;18.73;;;;;;;1.91;100.00;99061.78;4922382;29;20047;-75
2021/01/22 08:13:11;;;;;;;31.10;17.25;;;;;;;1.92;100.00;99060.81;4925018;29;20185;-74
2021/01/22 08:15:37;;;;;;;31.67;16.00;;;;;;;1.92;100.00;99058.16;4926136;29;20419;-75
2021/01/22 08:18:06;;;;;;;25.88;15.13;;;;;;;1.95;100.00;99061.34;4928391;29;20173;-75
2021/01/22 08:20:32;;;;;;;29.85;14.13;;;;;;;1.79;100.00;99043.53;4925807;29;20044;-75
2021/01/22 08:22:58;;;;;;;30.95;14.27;;;;;;;1.98;100.00;99068.97;4924391;29;20089;-75
2021/01/22 08:25:31;;;;;;;28.98;14.05;;;;;;;2.02;100.00;99087.09;4925715;29;20632;-75
2021/01/22 08:27:57;;;;;;;29.25;14.50;;;;;;;2.04;100.00;99079.88;4927580;29;20036;-75
2021/01/22 08:30:24;;;;;;;27.73;14.43;;;;;;;2.04;100.00;99085.97;4925614;29;20257;-75
2021/01/22 08:32:50;;;;;;;26.05;12.95;;;;;;;1.95;100.00;99063.16;4926097;29;20087;-75
2021/01/22 08:35:16;;;;;;;34.33;12.98;;;;;;;2.10;100.00;99090.66;4912193;29;20031;-75
2021/01/22 08:37:41;;;;;;;28.85;12.50;;;;;;;1.93;100.00;99065.91;4910534;29;20048;-75
2021/01/22 08:40:08;;;;;;;21.02;11.98;;;;;;;2.11;100.00;99097.59;4894559;29;20071;-75
2021/01/22 08:42:33;;;;;;;26.88;11.65;;;;;;;2.02;100.00;99087.91;4924319;29;20043;-75
2021/01/22 08:45:00;;;;;;;21.98;11.85;;;;;;;2.13;100.00;99102.72;4921524;29;20501;-76
2021/01/22 08:47:27;;;;;;;24.95;12.45;;;;;;;1.98;100.00;99078.63;4927183;29;20033;-75
2021/01/22 08:50:02;;;;;;;24.35;11.88;;;;;;;2.19;100.00;99102.16;4906921;29;20090;-75
2021/01/22 08:52:28;;;;;;;30.20;12.60;;;;;;;2.19;100.00;99109.22;4926650;29;20039;-75
2021/01/22 08:54:56;;;;;;;22.88;11.15;;;;;;;2.21;100.00;99109.91;4922025;29;20035;-74
2021/01/22 08:57:22;;;;;;;27.30;12.18;;;;;;;2.25;100.00;99109.50;4925244;29;20110;-75
2021/01/22 08:59:52;;;;;;;24.83;10.75;;;;;;;2.30;100.00;99114.31;4921721;29;20023;-83
2021/01/22 09:02:36;;;;;;;23.10;11.02;;;;;;;2.28;99.99;99118.88;4922992;29;20062;-74
2021/01/22 09:05:06;;;;;;;23.38;10.38;;;;;;;2.10;99.83;99084.59;4927594;29;20046;-75
2021/01/22 09:07:32;;;;;;;18.25;9.30;;;;;;;2.38;99.51;99124.97;4922951;29;20067;-75
2021/01/22 09:09:58;;;;;;;23.75;10.80;;;;;;;2.43;100.00;99128.00;4922294;29;20024;-75
2021/01/22 09:12:27;;;;;;;20.88;10.40;;;;;;;2.44;99.57;99134.13;4924782;29;20066;-75
2021/01/22 09:15:16;;;;;;;29.08;11.65;;;;;;;2.49;100.00;99125.78;4926083;29;20016;-75
2021/01/22 09:17:50;;;;;;;23.90;10.75;;;;;;;2.31;99.86;99102.81;4923526;29;20035;-75
2021/01/22 09:20:20;;;;;;;24.55;10.35;;;;;;;2.65;99.16;99141.78;4909716;29;20024;-75
2021/01/22 09:22:50;;;;;;;27.10;11.30;;;;;;;2.45;98.81;99130.47;4923417;29;20035;-75
2021/01/22 09:25:17;;;;;;;25.15;10.73;;;;;;;2.65;99.00;99162.03;4924055;29;20102;-75
2021/01/22 09:27:43;;;;;;;30.40;10.13;;;;;;;2.64;98.64;99166.50;4921950;29;20111;-83
2021/01/22 09:30:17;;;;;;;24.70;10.40;;;;;;;2.66;99.10;99164.53;4937214;28;20118;-75
2021/01/22 09:32:47;;;;;;;24.83;10.02;;;;;;;2.67;99.38;99157.47;4920270;29;20042;-75
2021/01/22 09:35:13;;;;;;;21.88;9.05;;;;;;;2.79;99.09;99177.38;4892657;29;20047;-75
2021/01/22 09:37:38;;;;;;;29.77;10.02;;;;;;;2.87;98.89;99184.56;4925445;29;20059;-79
2021/01/22 09:40:05;;;;;;;27.50;9.85;;;;;;;2.97;99.27;99188.00;4927576;29;20056;-75
2021/01/22 09:42:30;;;;;;;30.63;8.95;;;;;;;2.98;98.65;99186.22;4913267;29;20594;-75
2021/01/22 09:44:56;;;;;;;25.83;11.27;;;;;;;3.03;98.78;99192.69;4924129;29;20055;-75
2021/01/22 09:47:21;;;;;;;22.80;8.70;;;;;;;3.03;98.75;99197.97;4923046;29;20549;-75
2021/01/22 09:49:47;;;;;;;30.15;9.52;;;;;;;3.13;98.99;99194.47;4933061;28;20075;-75
2021/01/22 09:52:14;;;;;;;20.05;8.95;;;;;;;3.22;99.55;99201.47;4920979;29;20146;-75
2021/01/22 09:54:40;;;;;;;25.98;10.30;;;;;;;3.29;98.98;99207.00;4918374;29;20035;-81
2021/01/22 09:57:06;;;;;;;24.67;9.02;;;;;;;3.34;98.49;99213.50;4922967;29;20570;-75
2021/01/22 09:59:31;;;;;;;18.50;9.73;;;;;;;3.42;98.63;99218.03;4923934;29;20139;-76
2021/01/22 10:01:57;;;;;;;21.63;9.73;;;;;;;3.58;98.79;99217.41;4914167;29;20115;-75
2021/01/22 10:04:22;;;;;;;20.67;8.30;;;;;;;3.73;98.31;99223.00;4912449;29;20036;-75
2021/01/22 10:06:48;;;;;;;17.90;8.73;;;;;;;3.65;97.73;99199.19;4918884;29;20593;-76
2021/01/22 10:09:13;;;;;;;21.73;9.55;;;;;;;3.85;96.81;99231.56;4925192;29;20075;-75
2021/01/22 10:11:39;;;;;;;18.40;8.18;;;;;;;3.92;96.77;99231.78;4934068;28;20461;-75
2021/01/22 10:14:05;;;;;;;24.45;8.40;;;;;;;3.91;96.43;99238.03;4917726;29;20423;-75
2021/01/22 10:16:31;;;;;;;21.05;8.35;;;;;;;3.88;97.10;99241.78;4897594;29;20032;-75
2021/01/22 10:18:56;;;;;;;17.90;7.97;;;;;;;3.93;96.44;99236.91;4934667;28;20547;-76
2021/01/22 10:21:22;;;;;;;23.88;8.82;;;;;;;4.00;96.90;99246.88;4923016;29;20036;-75
2021/01/22 10:23:48;;;;;;;20.48;8.80;;;;;;;4.09;97.33;99249.41;4935904;28;20515;-75
2021/01/22 10:26:14;;;;;;;22.00;8.98;;;;;;;4.23;97.45;99258.66;4930212;28;20563;-75
2021/01/22 10:28:40;;;;;;;24.48;8.25;;;;;;;4.16;97.36;99212.69;4921795;29;20103;-75
2021/01/22 10:31:05;;;;;;;29.08;7.70;;;;;;;4.38;95.15;99248.38;4924759;29;20039;-75
2021/01/22 10:33:31;;;;;;;28.23;8.27;;;;;;;4.32;95.22;99240.22;4921771;28;20563;-75
2021/01/22 10:35:57;;;;;;;22.23;7.70;;;;;;;4.32;95.66;99256.91;4926444;29;20055;-76
2021/01/22 10:38:22;;;;;;;18.48;7.57;;;;;;;4.29;95.50;99244.81;4908099;29;20071;-76
2021/01/22 10:40:48;;;;;;;23.02;7.10;;;;;;;4.06;95.95;99198.75;4915310;29;20783;-76
2021/01/22 10:43:14;;;;;;;20.15;7.53;;;;;;;4.47;95.14;99253.72;4916044;29;20110;-81
2021/01/22 10:45:39;;;;;;;21.00;7.55;;;;;;;4.53;95.07;99251.31;4915424;29;20055;-76
2021/01/22 10:48:05;;;;;;;19.33;7.32;;;;;;;4.56;94.82;99256.25;4927090;28;20031;-76
2021/01/22 10:50:31;;;;;;;16.77;6.85;;;;;;;4.67;95.38;99259.66;4916735;29;20175;-77
2021/01/22 10:52:56;;;;;;;23.25;7.38;;;;;;;4.77;95.31;99260.41;4918663;29;20039;-77
2021/01/22 10:55:22;;;;;;;23.83;7.20;;;;;;;4.84;94.84;99264.06;4919540;28;20039;-77
2021/01/22 10:57:48;;;;;;;17.52;6.50;;;;;;;4.91;93.77;99264.28;4925321;29;20118;-77
2021/01/22 11:00:14;;;;;;;19.33;6.60;;;;;;;4.91;94.26;99266.91;4928067;29;20118;-77
2021/01/22 11:02:39;;;;;;;23.52;7.00;;;;;;;4.65;94.06;99236.03;4928589;29;20119;-77
2021/01/22 11:05:05;;;;;;;21.35;7.45;;;;;;;4.94;94.71;99271.91;4920748;29;20325;-77
2021/01/22 11:07:31;;;;;;;18.80;6.10;;;;;;;4.60;93.81;99217.19;4923059;28;20401;-78
2021/01/22 11:09:56;;;;;;;18.70;6.20;;;;;;;4.99;94.07;99263.50;4926138;29;20119;-77
2021/01/22 11:12:22;;;;;;;21.77;6.35;;;;;;;5.12;94.24;99282.41;4928356;29;20130;-78
2021/01/22 11:14:48;;;;;;;22.10;6.43;;;;;;;5.18;94.13;99284.47;4925460;29;20110;-77
2021/01/22 11:17:13;;;;;;;16.42;5.53;;;;;;;5.25;93.46;99289.94;4926890;29;20078;-77
2021/01/22 11:19:39;;;;;;;22.48;6.35;;;;;;;5.28;92.78;99284.34;4942608;28;20027;-77
2021/01/22 11:22:04;;;;;;;27.50;5.70;;;;;;;5.26;91.93;99293.41;4924168;29;20127;-78
2021/01/22 11:24:30;;;;;;;17.33;5.93;;;;;;;5.35;92.07;99297.78;4918009;29;20497;-78
2021/01/22 11:26:56;;;;;;;14.32;5.13;;;;;;;5.29;92.11;99280.72;4916853;29;20970;-78
2021/01/22 11:29:21;;;;;;;16.70;5.07;;;;;;;5.38;91.25;99310.66;4914424;29;20040;-78
2021/01/22 11:31:47;;;;;;;20.00;5.38;;;;;;;5.15;92.25;99279.47;4927471;29;20074;-78